createdAt,value
2022-11-26T00:02:25.058Z,3.03
2022-11-26T00:05:00.143Z,3.30
2022-11-26T00:07:36.586Z,3.10
2022-11-26T00:10:18.905Z,3.50
2022-11-26T00:12:51.769Z,3.50
2022-11-26T00:15:26.429Z,3.40
2022-11-26T00:17:59.475Z,3.10
2022-11-26T00:20:33.150Z,3.22
2022-11-26T00:23:06.294Z,2.90
2022-11-26T00:25:44.448Z,3.08
2022-11-26T00:28:27.074Z,3.05
2022-11-26T00:31:02.569Z,3.38
2022-11-26T00:33:35.542Z,3.05
2022-11-26T00:36:18.071Z,3.22
2022-11-26T00:38:55.032Z,3.60
2022-11-26T00:41:32.799Z,3.40
2022-11-26T00:44:06.349Z,3.35
2022-11-26T00:46:42.686Z,3.53
2022-11-26T00:49:19.438Z,3.00
2022-11-26T00:51:56.605Z,3.30
2022-11-26T00:54:29.774Z,3.05
2022-11-26T00:57:06.558Z,3.33
2022-11-26T00:59:39.414Z,2.85
2022-11-26T01:03:10.883Z,3.20
2022-11-26T01:05:44.624Z,3.08
2022-11-26T01:08:24.427Z,2.88
2022-11-26T01:10:57.401Z,3.05
2022-11-26T01:13:32.033Z,3.25
2022-11-26T01:16:16.190Z,2.70
2022-11-26T01:18:50.687Z,2.90
2022-11-26T01:21:24.299Z,2.95
2022-11-26T01:23:57.277Z,3.25
2022-11-26T01:26:34.856Z,3.08
2022-11-26T01:29:15.663Z,2.80
2022-11-26T01:31:49.188Z,2.50
2022-11-26T01:34:22.199Z,2.72
2022-11-26T01:36:54.981Z,2.75
2022-11-26T01:39:27.874Z,2.90
2022-11-26T01:42:08.420Z,2.65
2022-11-26T01:44:43.064Z,2.60
2022-11-26T01:47:24.691Z,2.55
2022-11-26T01:50:40.167Z,2.88
2022-11-26T01:53:16.400Z,2.50
2022-11-26T01:55:54.305Z,2.38
2022-11-26T01:58:32.563Z,3.05
2022-11-26T02:01:08.943Z,2.60
2022-11-26T02:03:46.585Z,2.95
2022-11-26T02:06:24.705Z,2.30
2022-11-26T02:08:58.150Z,2.53
2022-11-26T02:11:31.205Z,2.60
2022-11-26T02:14:07.454Z,2.78
2022-11-26T02:17:01.155Z,3.13
2022-11-26T02:20:06.067Z,2.88
2022-11-26T02:23:00.106Z,2.80
2022-11-26T02:25:43.290Z,2.90
2022-11-26T02:28:34.495Z,2.92
2022-11-26T02:31:13.057Z,2.63
2022-11-26T02:33:53.315Z,2.63
2022-11-26T02:36:32.923Z,2.80
2022-11-26T02:39:14.128Z,2.58
2022-11-26T02:41:50.096Z,2.70
2022-11-26T02:44:25.384Z,2.80
2022-11-26T02:47:03.914Z,2.97
2022-11-26T02:49:39.322Z,3.30
2022-11-26T02:52:15.471Z,3.03
2022-11-26T02:54:50.785Z,2.90
2022-11-26T02:57:28.039Z,2.85
2022-11-26T03:00:01.328Z,3.05
2022-11-26T03:02:41.682Z,2.97
2022-11-26T03:05:17.651Z,2.70
2022-11-26T03:07:53.139Z,2.80
2022-11-26T03:10:28.172Z,2.90
2022-11-26T03:13:01.114Z,3.08
2022-11-26T03:15:34.203Z,2.95
2022-11-26T03:18:08.506Z,3.40
2022-11-26T03:20:41.439Z,2.92
2022-11-26T03:23:14.252Z,3.13
2022-11-26T03:25:47.254Z,2.70
2022-11-26T03:28:20.054Z,3.15
2022-11-26T03:30:53.620Z,3.47
2022-11-26T03:33:27.884Z,2.63
2022-11-26T03:36:00.853Z,2.88
2022-11-26T03:38:33.689Z,3.40
2022-11-26T03:41:06.806Z,3.13
2022-11-26T03:43:39.625Z,2.72
2022-11-26T03:46:12.542Z,2.78
2022-11-26T03:48:46.831Z,3.00
2022-11-26T03:51:19.632Z,3.30
2022-11-26T03:53:52.424Z,2.80
2022-11-26T03:56:25.378Z,3.03
2022-11-26T03:58:58.215Z,2.92
2022-11-26T04:01:31.073Z,2.63
2022-11-26T04:04:05.793Z,2.85
2022-11-26T04:06:38.618Z,3.03
2022-11-26T04:09:11.479Z,2.95
2022-11-26T04:11:44.325Z,3.05
2022-11-26T04:14:17.581Z,3.15
2022-11-26T04:16:50.520Z,3.08
2022-11-26T04:19:24.811Z,3.20
2022-11-26T04:21:57.736Z,3.63
2022-11-26T04:24:31.021Z,3.17
2022-11-26T04:27:04.063Z,3.55
2022-11-26T04:29:37.491Z,3.58
2022-11-26T04:32:10.473Z,3.13
2022-11-26T04:34:44.651Z,3.70
2022-11-26T04:37:17.497Z,2.95
2022-11-26T04:39:50.285Z,3.58
2022-11-26T04:42:23.213Z,3.22
2022-11-26T04:44:56.086Z,2.92
2022-11-26T04:47:28.907Z,2.70
2022-11-26T04:50:03.114Z,3.00
2022-11-26T04:52:36.035Z,2.90
2022-11-26T04:55:09.489Z,3.03
2022-11-26T04:57:42.323Z,3.40
2022-11-26T05:00:17.025Z,2.90
2022-11-26T05:02:49.884Z,3.00
2022-11-26T05:05:24.155Z,3.38
2022-11-26T05:07:57.097Z,3.10
2022-11-26T05:10:29.858Z,3.00
2022-11-26T05:13:02.804Z,3.38
2022-11-26T05:15:35.632Z,2.80
2022-11-26T05:18:08.576Z,2.85
2022-11-26T05:20:42.855Z,2.70
2022-11-26T05:23:15.761Z,3.08
2022-11-26T05:25:48.957Z,3.08
2022-11-26T05:28:21.832Z,2.60
2022-11-26T05:30:58.991Z,2.80
2022-11-26T05:33:32.464Z,3.17
2022-11-26T05:36:07.087Z,2.33
2022-11-26T05:38:40.019Z,3.17
2022-11-26T05:41:12.884Z,3.25
2022-11-26T05:43:45.722Z,2.83
2022-11-26T05:46:19.988Z,2.53
2022-11-26T05:48:53.043Z,2.53
2022-11-26T05:51:27.471Z,2.83
2022-11-26T05:54:00.471Z,2.78
2022-11-26T05:56:33.258Z,2.80
2022-11-26T05:59:06.091Z,2.53
2022-11-26T06:01:38.981Z,2.65
2022-11-26T06:04:11.873Z,2.90
2022-11-26T06:06:46.071Z,2.30
2022-11-26T06:09:18.875Z,2.97
2022-11-26T06:11:51.760Z,2.63
2022-11-26T06:14:24.622Z,2.80
2022-11-26T06:16:57.487Z,3.20
2022-11-26T06:19:30.334Z,2.85
2022-11-26T06:22:04.804Z,3.10
2022-11-26T06:24:38.036Z,2.75
2022-11-26T06:27:11.272Z,2.80
2022-11-26T06:29:45.158Z,3.20
2022-11-26T06:32:17.989Z,3.10
2022-11-26T06:34:53.985Z,2.70
2022-11-26T06:37:28.684Z,3.53
2022-11-26T06:40:01.731Z,2.95
2022-11-26T06:42:35.227Z,2.75
2022-11-26T06:45:08.988Z,2.88
2022-11-26T06:47:41.923Z,2.67
2022-11-26T06:50:15.494Z,3.05
2022-11-26T06:52:51.780Z,3.00
2022-11-26T06:55:24.649Z,2.72
2022-11-26T06:57:57.447Z,2.55
2022-11-26T07:00:30.413Z,2.75
2022-11-26T07:03:03.271Z,2.53
2022-11-26T07:05:36.397Z,2.95
2022-11-26T07:08:10.608Z,3.30
2022-11-26T07:10:48.669Z,2.50
2022-11-26T07:13:21.990Z,2.75
2022-11-26T07:15:54.848Z,2.90
2022-11-26T07:18:27.722Z,2.67
2022-11-26T07:21:06.285Z,2.70
2022-11-26T07:23:41.806Z,2.63
2022-11-26T07:26:15.636Z,2.83
2022-11-26T07:28:48.419Z,2.67
2022-11-26T07:31:22.815Z,2.88
2022-11-26T07:33:55.713Z,3.35
2022-11-26T07:36:30.925Z,3.13
2022-11-26T07:39:05.317Z,2.95
2022-11-26T07:41:38.567Z,3.00
2022-11-26T07:44:14.375Z,3.08
2022-11-26T07:46:47.250Z,3.38
2022-11-26T07:49:20.266Z,3.92
2022-11-26T07:51:53.184Z,3.03
2022-11-26T07:54:27.341Z,3.67
2022-11-26T07:57:00.180Z,3.63
2022-11-26T07:59:32.979Z,3.83
2022-11-26T08:02:05.868Z,3.47
2022-11-26T08:04:39.044Z,3.80
2022-11-26T08:07:16.067Z,4.53
2022-11-26T08:09:54.267Z,3.42
2022-11-26T08:12:27.533Z,3.30
2022-11-26T08:15:00.325Z,3.65
2022-11-26T08:17:33.178Z,4.45
2022-11-26T08:20:07.490Z,3.65
2022-11-26T08:22:40.732Z,4.35
2022-11-26T08:25:15.020Z,3.70
2022-11-26T08:27:47.901Z,3.67
2022-11-26T08:30:20.833Z,4.22
2022-11-26T08:32:53.883Z,4.07
2022-11-26T08:35:44.403Z,4.00
2022-11-26T08:38:19.732Z,4.72
2022-11-26T08:40:54.443Z,4.40
2022-11-26T08:43:45.014Z,3.65
2022-11-26T08:46:21.838Z,4.25
2022-11-26T08:48:56.448Z,4.45
2022-11-26T08:51:29.274Z,3.67
2022-11-26T08:54:02.509Z,4.05
2022-11-26T08:56:37.335Z,4.53
2022-11-26T08:59:10.175Z,4.00
2022-11-26T09:01:43.189Z,3.60
2022-11-26T09:04:16.192Z,4.70
2022-11-26T09:06:48.983Z,4.05
2022-11-26T09:09:21.815Z,4.50
2022-11-26T09:11:59.961Z,4.15
2022-11-26T09:14:37.905Z,4.15
2022-11-26T09:17:12.658Z,4.10
2022-11-26T09:19:45.502Z,4.10
2022-11-26T09:22:18.263Z,4.53
2022-11-26T09:24:51.108Z,4.72
2022-11-26T09:27:25.324Z,4.15
2022-11-26T09:29:58.243Z,3.90
2022-11-26T09:32:34.306Z,3.38
2022-11-26T09:35:08.276Z,3.17
2022-11-26T09:37:41.056Z,3.35
2022-11-26T09:40:19.515Z,2.95
2022-11-26T09:43:05.314Z,3.92
2022-11-26T09:45:45.653Z,3.92
2022-11-26T09:48:24.191Z,3.28
2022-11-26T09:51:04.711Z,3.75
2022-11-26T09:53:42.806Z,3.70
2022-11-26T09:56:22.174Z,2.88
2022-11-26T09:59:01.705Z,2.67
2022-11-26T10:01:35.682Z,2.60
2022-11-26T10:04:09.842Z,2.60
2022-11-26T10:06:52.425Z,2.42
2022-11-26T10:09:37.884Z,2.53
2022-11-26T10:12:26.476Z,2.45
2022-11-26T10:15:11.543Z,2.08
2022-11-26T10:17:55.004Z,1.95
2022-11-26T10:20:46.638Z,2.17
2022-11-26T10:23:27.127Z,2.63
2022-11-26T10:26:06.982Z,2.15
2022-11-26T10:28:46.314Z,2.15
2022-11-26T10:31:23.573Z,2.55
2022-11-26T10:33:58.984Z,2.00
2022-11-26T10:36:36.649Z,2.15
2022-11-26T10:39:14.258Z,1.90
2022-11-26T10:41:47.941Z,2.22
2022-11-26T10:44:32.238Z,2.40
2022-11-26T10:47:26.008Z,2.20
2022-11-26T10:50:40.029Z,2.03
2022-11-26T10:53:20.709Z,1.92
2022-11-26T10:55:57.125Z,2.10
2022-11-26T10:58:35.080Z,1.58
2022-11-26T11:01:08.867Z,2.60
2022-11-26T11:04:08.744Z,2.22
2022-11-26T11:06:43.793Z,2.05
2022-11-26T11:09:29.145Z,1.88
2022-11-26T11:12:26.065Z,2.15
2022-11-26T11:15:20.243Z,2.20
2022-11-26T11:17:59.167Z,1.95
2022-11-26T11:20:39.208Z,1.88
2022-11-26T11:23:40.027Z,1.92
2022-11-26T11:26:22.448Z,1.60
2022-11-26T11:28:56.817Z,1.65
2022-11-26T11:31:29.613Z,1.90
2022-11-26T11:34:14.993Z,1.98
2022-11-26T11:36:59.651Z,1.80
2022-11-26T11:39:33.910Z,1.98
2022-11-26T11:42:18.165Z,1.48
2022-11-26T11:44:53.374Z,1.02
2022-11-26T11:47:37.247Z,0.88
2022-11-26T11:50:22.488Z,1.33
2022-11-26T11:53:09.778Z,1.58
2022-11-26T11:56:02.223Z,1.30
2022-11-26T11:59:02.033Z,1.48
2022-11-26T12:01:51.687Z,2.00
2022-11-26T12:04:39.790Z,2.25
2022-11-26T12:07:36.768Z,3.08
2022-11-26T12:10:16.186Z,3.65
2022-11-26T12:12:52.482Z,3.30
2022-11-26T12:15:29.493Z,3.10
2022-11-26T12:18:08.170Z,3.25
2022-11-26T12:20:45.088Z,3.55
2022-11-26T12:23:29.446Z,3.30
2022-11-26T12:26:12.050Z,3.15
2022-11-26T12:28:53.800Z,3.75
2022-11-26T12:31:32.189Z,3.63
2022-11-26T12:34:11.425Z,3.13
2022-11-26T12:36:51.206Z,3.33
2022-11-26T12:39:37.037Z,3.45
2022-11-26T12:42:18.118Z,3.22
2022-11-26T12:44:54.848Z,3.00
2022-11-26T12:47:34.128Z,3.13
2022-11-26T12:50:16.816Z,3.70
2022-11-26T12:52:58.706Z,3.00
2022-11-26T12:58:15.521Z,2.45
2022-11-26T13:00:49.767Z,3.00
2022-11-26T13:03:28.516Z,3.40
2022-11-26T13:06:08.055Z,2.88
2022-11-26T13:08:49.751Z,3.30
2022-11-26T13:11:38.378Z,3.45
2022-11-26T13:14:19.590Z,3.33
2022-11-26T13:16:58.273Z,3.05
2022-11-26T13:19:37.360Z,2.47
2022-11-26T13:22:41.653Z,3.28
2022-11-26T13:25:38.454Z,3.22
2022-11-26T13:28:22.817Z,3.38
2022-11-26T13:31:15.777Z,3.00
2022-11-26T13:34:04.997Z,2.65
2022-11-26T13:36:56.303Z,3.10
2022-11-26T13:40:08.935Z,3.17
2022-11-26T13:43:03.574Z,2.90
2022-11-26T13:45:51.485Z,2.67
2022-11-26T13:48:34.820Z,1.90
2022-11-26T13:51:15.375Z,1.73
2022-11-26T13:53:53.381Z,1.98
2022-11-26T13:56:32.184Z,1.70
2022-11-26T13:59:09.107Z,1.88
2022-11-26T14:01:42.641Z,1.67
2022-11-26T14:04:53.402Z,1.63
2022-11-26T14:07:26.594Z,1.60
2022-11-26T14:10:01.176Z,1.70
2022-11-26T14:13:17.412Z,1.63
2022-11-26T14:16:02.521Z,1.40
2022-11-26T14:18:56.640Z,1.65
2022-11-26T14:21:31.649Z,1.90
2022-11-26T14:24:04.862Z,2.33
2022-11-26T14:26:38.534Z,2.63
2022-11-26T14:29:15.236Z,2.30
2022-11-26T14:31:52.188Z,2.17
2022-11-26T14:34:32.306Z,3.15
2022-11-26T14:37:15.092Z,2.65
2022-11-26T14:39:58.216Z,3.00
2022-11-26T14:42:31.397Z,3.58
2022-11-26T14:45:05.847Z,3.10
2022-11-26T14:47:38.609Z,2.85
2022-11-26T14:50:15.181Z,2.58
2022-11-26T14:52:56.518Z,2.80
2022-11-26T14:55:31.718Z,3.17
2022-11-26T14:58:09.733Z,2.80
2022-11-26T15:00:42.874Z,3.30
2022-11-26T15:03:23.985Z,2.95
2022-11-26T15:05:57.072Z,2.53
2022-11-26T15:08:31.391Z,2.72
2022-11-26T15:11:08.070Z,3.50
2022-11-26T15:13:45.956Z,2.90
2022-11-26T15:16:33.048Z,3.17
2022-11-26T15:19:07.797Z,2.90
2022-11-26T15:21:41.784Z,3.00
2022-11-26T15:24:16.898Z,2.70
2022-11-26T15:26:49.845Z,2.83
2022-11-26T15:29:35.480Z,2.50
2022-11-26T15:32:25.580Z,2.50
2022-11-26T15:35:01.308Z,2.65
2022-11-26T15:37:35.174Z,2.72
2022-11-26T15:40:21.554Z,2.75
2022-11-26T15:42:58.550Z,2.28
2022-11-26T15:45:39.053Z,2.53
2022-11-26T15:48:27.747Z,2.53
2022-11-26T15:51:04.924Z,2.80
2022-11-26T15:53:45.467Z,2.75
2022-11-26T15:56:21.722Z,2.83
2022-11-26T15:58:58.229Z,3.22
2022-11-26T16:01:35.196Z,2.67
2022-11-26T16:04:40.068Z,2.42
2022-11-26T16:07:14.842Z,2.45
2022-11-26T16:09:49.445Z,2.92
2022-11-26T16:12:44.309Z,2.60
2022-11-26T16:15:22.624Z,2.75
2022-11-26T16:17:55.738Z,2.67
2022-11-26T16:20:30.435Z,2.45
2022-11-26T16:23:03.326Z,2.20
2022-11-26T16:25:37.251Z,2.60
2022-11-26T16:28:16.894Z,2.58
2022-11-26T16:30:52.783Z,2.58
2022-11-26T16:33:28.145Z,2.53
2022-11-26T16:36:02.045Z,3.45
2022-11-26T16:38:34.858Z,2.97
2022-11-26T16:41:12.440Z,2.58
2022-11-26T16:43:46.813Z,2.63
2022-11-26T16:46:23.442Z,2.90
2022-11-26T16:48:56.472Z,2.47
2022-11-26T16:51:29.486Z,2.35
2022-11-26T16:54:02.295Z,2.60
2022-11-26T16:56:38.528Z,2.70
2022-11-26T16:59:20.091Z,2.50
2022-11-26T17:01:53.013Z,2.53
2022-11-26T17:04:25.857Z,2.45
2022-11-26T17:06:58.955Z,2.28
2022-11-26T17:09:31.834Z,2.70
2022-11-26T17:12:04.880Z,2.67
2022-11-26T17:14:39.048Z,2.55
2022-11-26T17:17:13.872Z,2.63
2022-11-26T17:19:46.764Z,2.60
2022-11-26T17:22:20.313Z,3.05
2022-11-26T17:24:53.089Z,3.58
2022-11-26T17:27:26.720Z,3.00
2022-11-26T17:30:00.931Z,3.28
2022-11-26T17:32:33.756Z,3.30
2022-11-26T17:35:06.843Z,3.03
2022-11-26T17:37:40.567Z,3.25
2022-11-26T17:40:18.777Z,2.65
2022-11-26T17:42:52.085Z,3.03
2022-11-26T17:45:26.465Z,3.15
2022-11-26T17:47:59.403Z,3.55
2022-11-26T17:50:33.492Z,3.53
2022-11-26T17:53:06.487Z,3.28
2022-11-26T17:55:39.661Z,2.97
2022-11-26T17:58:13.104Z,3.22
2022-11-26T18:00:47.268Z,4.57
2022-11-26T18:03:20.107Z,3.78
2022-11-26T18:05:52.880Z,3.72
2022-11-26T18:08:25.736Z,4.10
2022-11-26T18:10:58.524Z,4.45
2022-11-26T18:13:31.337Z,4.25
2022-11-26T18:16:05.947Z,3.95
2022-11-26T18:18:39.896Z,4.55
2022-11-26T18:21:13.543Z,3.45
2022-11-26T18:23:48.159Z,4.03
2022-11-26T18:26:20.972Z,4.47
2022-11-26T18:28:53.807Z,5.40
2022-11-26T18:31:28.417Z,4.80
2022-11-26T18:34:01.801Z,4.65
2022-11-26T18:36:34.642Z,4.50
2022-11-26T18:39:07.547Z,4.30
2022-11-26T18:41:40.326Z,4.47
2022-11-26T18:44:13.340Z,4.30
2022-11-26T18:46:47.478Z,4.43
2022-11-26T18:49:20.542Z,4.03
2022-11-26T18:51:53.313Z,4.50
2022-11-26T18:54:26.167Z,4.72
2022-11-26T18:56:59.004Z,3.58
2022-11-26T18:59:31.976Z,3.80
2022-11-26T19:02:06.221Z,4.20
2022-11-26T19:04:39.855Z,4.20
2022-11-26T19:07:13.880Z,4.05
2022-11-26T19:09:46.841Z,4.03
2022-11-26T19:12:19.642Z,3.63
2022-11-26T19:14:52.523Z,3.13
2022-11-26T19:17:27.164Z,3.60
2022-11-26T19:20:00.236Z,3.35
2022-11-26T19:22:33.054Z,3.55
2022-11-26T19:25:06.696Z,2.97
2022-11-26T19:27:39.606Z,3.60
2022-11-26T19:30:17.367Z,3.00
2022-11-26T19:32:51.576Z,3.22
2022-11-26T19:35:24.783Z,3.15
2022-11-26T19:37:57.554Z,3.17
2022-11-26T19:40:30.406Z,2.83
2022-11-26T19:43:03.228Z,2.88
2022-11-26T19:45:36.080Z,2.92
2022-11-26T19:48:10.307Z,2.92
2022-11-26T19:50:43.173Z,3.75
2022-11-26T19:53:15.972Z,3.20
2022-11-26T19:55:56.349Z,3.00
2022-11-26T19:58:30.680Z,2.97
2022-11-26T20:01:06.727Z,2.95
2022-11-26T20:03:41.117Z,2.97
2022-11-26T20:06:16.713Z,3.72
2022-11-26T20:08:50.367Z,3.50
2022-11-26T20:11:25.338Z,3.60
2022-11-26T20:13:58.941Z,3.65
2022-11-26T20:16:33.519Z,4.25
2022-11-26T20:19:08.373Z,4.85
2022-11-26T20:21:41.341Z,4.57
2022-11-26T20:24:17.695Z,5.18
2022-11-26T20:26:51.011Z,4.57
2022-11-26T20:29:25.184Z,4.90
2022-11-26T20:31:58.007Z,4.45
2022-11-26T20:34:33.659Z,4.03
2022-11-26T20:37:06.464Z,3.90
2022-11-26T20:39:39.759Z,4.22
2022-11-26T20:42:15.232Z,4.70
2022-11-26T20:44:48.022Z,4.32
2022-11-26T20:47:20.999Z,4.45
2022-11-26T20:49:55.571Z,4.00
2022-11-26T20:52:28.413Z,3.35
2022-11-26T20:55:01.231Z,3.70
2022-11-26T20:57:36.518Z,3.55
2022-11-26T21:00:10.691Z,3.25
2022-11-26T21:02:43.651Z,3.75
2022-11-26T21:05:18.525Z,3.42
2022-11-26T21:07:52.134Z,3.70
2022-11-26T21:10:26.678Z,3.28
2022-11-26T21:12:59.600Z,3.20
2022-11-26T21:15:32.390Z,3.70
2022-11-26T21:18:05.731Z,3.30
2022-11-26T21:20:42.198Z,4.20
2022-11-26T21:23:15.154Z,3.70
2022-11-26T21:25:48.182Z,3.83
2022-11-26T21:28:21.113Z,3.42
2022-11-26T21:30:53.948Z,3.17
2022-11-26T21:33:26.829Z,3.50
2022-11-26T21:36:06.620Z,3.40
2022-11-26T21:38:40.961Z,2.97
2022-11-26T21:41:15.613Z,3.25
2022-11-26T21:43:49.518Z,2.72
2022-11-26T21:46:23.727Z,3.50
2022-11-26T21:48:58.002Z,2.88
2022-11-26T21:51:32.228Z,3.63
2022-11-26T21:54:05.475Z,3.20
2022-11-26T21:56:38.393Z,3.67
2022-11-26T21:59:11.386Z,3.45
2022-11-26T22:01:44.414Z,3.67
2022-11-26T22:04:19.681Z,4.10
2022-11-26T22:06:53.991Z,3.78
2022-11-26T22:09:26.849Z,3.65
2022-11-26T22:12:00.151Z,3.25
2022-11-26T22:14:32.980Z,3.80
2022-11-26T22:17:05.873Z,3.85
2022-11-26T22:19:38.916Z,4.18
2022-11-26T22:22:13.282Z,4.57
2022-11-26T22:24:46.127Z,4.55
2022-11-26T22:27:18.954Z,3.72
2022-11-26T22:29:51.756Z,4.20
2022-11-26T22:32:24.542Z,3.90
2022-11-26T22:34:57.688Z,4.13
2022-11-26T22:37:32.292Z,5.25
2022-11-26T22:40:06.004Z,5.10
2022-11-26T22:42:41.431Z,4.85
2022-11-26T22:45:14.499Z,4.57
2022-11-26T22:47:51.467Z,5.10
2022-11-26T22:50:25.782Z,4.53
2022-11-26T22:52:59.952Z,4.85
2022-11-26T22:55:32.772Z,4.90
2022-11-26T22:58:05.607Z,5.50
2022-11-26T23:00:47.037Z,4.57
2022-11-26T23:03:21.592Z,4.80
2022-11-26T23:05:55.204Z,4.30
2022-11-26T23:08:29.481Z,4.10
2022-11-26T23:11:06.592Z,4.35
2022-11-26T23:13:41.131Z,4.90
2022-11-26T23:16:14.334Z,4.90
2022-11-26T23:18:47.206Z,4.10
2022-11-26T23:21:22.142Z,4.72
2022-11-26T23:23:57.056Z,4.85
2022-11-26T23:26:32.937Z,5.05
2022-11-26T23:29:06.830Z,4.90
2022-11-26T23:31:41.696Z,4.38
2022-11-26T23:34:15.735Z,4.75
2022-11-26T23:36:48.571Z,4.78
2022-11-26T23:39:22.714Z,5.22
2022-11-26T23:41:55.525Z,5.18
2022-11-26T23:44:28.341Z,5.07
2022-11-26T23:47:01.153Z,5.45
2022-11-26T23:49:34.031Z,4.38
2022-11-26T23:52:07.173Z,4.75
2022-11-26T23:54:41.305Z,4.90
2022-11-26T23:57:15.275Z,4.32
2022-11-26T23:59:48.176Z,4.65
